Terminal Aerodrome Forecast
Issued by NWS

Home | Current Version | Previous Version | Text Only | Print | Product List | Glossary On
Versions: 1 2 3 4 5 6 7 8 9 10 11 12 13 14 15 16 17 18 19
810
FTUS44 KLZK 242332
TAFLLQ
TAF
KLLQ 242332Z 2500/2524 27008KT P6SM VCSH SCT050 BKN080
     FM250300 28006KT P6SM SCT060 SCT250
     FM251500 19006KT P6SM FEW050 SCT250=

USA.gov is the U.S. government's official web portal to all federal, state and local government web resources and services.